首页
METAR-TAF:

METAR-TAF

机场 :

貝爾格勒尼古拉·特斯拉機場

贝尔格莱德, 塞尔维亚

纬度: 44-49N, 经度: 020-17E, 海拔: 96米

当前天气观测

该预报发布于30分钟前的01:30 UTC
风速2节,风向
温度 0°C
湿度 93%
气压 1003 hPa
能見度: 8000
多云层高于1100英尺

METAR: LYBE 230130Z 36002KT 8000 BKN011 M00/M01 Q1003 R12/5/1094 NOSIG

时间: 03:00 (02:00 UTC)

预报

该预报发布于3小时和0分钟前的23:00 UTC
预报有效从23日的 00点(UTC)到 23日的 24点(UTC)
风速6节,风向
能見度: 5000
散云层高于1300英尺
多云层高于3000英尺
轻雾
短暂存在
从 23日的 00点(UTC)到 23日的 03点(UTC)
能見度: 2000
多云层高于800英尺
多云层高于2300英尺
成为
从 23日的 03点(UTC)到 23日的 05点(UTC)
能見度: 1500
多云层高于300英尺
几率 40%
从 23日的 05点(UTC)到 23日的 08点(UTC)
能見度: 0500
冻雾
成为
从 23日的 09点(UTC)到 23日的 11点(UTC)
能見度: 5000
散云层高于1000英尺
成为
从 23日的 15点(UTC)到 23日的 17点(UTC)
能見度: 1500

TAF: LYBE 222300Z 2300/2324 08006KT 5000 BR SCT013 BKN030 TX03/2312Z TNM02/2306Z TEMPO 2300/2303 2000 SN BKN008 BKN023 BECMG 2303/2305 1500 BKN003 PROB40 2305/2308 0500 FZFG BECMG 2309/2311 5000 SCT010 BECMG 2315/2317 1500

超过4000个机场的气象观测和天气预报(METAR&TAF报告)。

可查询的气象台以黄色和红色小点在地图上表示。

将鼠标移到小点上方,可查看气象台名称。

然后点击查看天气观测和预报。

如需切换地图:点击带黑十字的绿色按钮放大地图;点击带横线的绿色按钮缩小地图;或者点击绿色箭头查看邻近地区的地图。


METAR-TAF: